• Join FlightAware (Why Join?)
  • Login
  • US Flag 
01:36PM EDT


 

Airport Tracker/Info


-or-


 

Live Flight TrackerFlight Track Log ✈ MRA602 ✈ 07-May-2012 ✈ KIWD - KIMT

Flight Track Log - Related Links

Times and Time Zones

All times are in EDT time to prevent confusion due to time zone crossing. See the MRA602 flight status page for this flight to view local times or setup timezone preferences in your user account.

Time Position Orientation Groundspeed Altitude Reporting Facility
EDT Latitude Longitude Course Direction KTS MPH feet Rate Location/Type
07:43PM 46.4986 -90.0158 118° Southeast 251 289 4,000  Level Minneapolis Center
07:44PM 46.4714 -89.9422 115° Southeast 224 258 6,000 1,800 Climbing Minneapolis Center
07:45PM 46.4481 -89.8683 117° Southeast 209 241 7,700 1,740 Climbing Minneapolis Center
07:46PM 46.4206 -89.7889 115° Southeast 209 241 9,500 1,380 Climbing Minneapolis Center
07:47PM 46.3950 -89.7092 115° Southeast 216 249 10,500 720 Climbing Minneapolis Center
07:48PM 46.3650 -89.6181 115° Southeast 227 261 11,000 180 Climbing Minneapolis Center
07:49PM 46.3347 -89.5239 114° Southeast 245 282 10,900 -60 Descending Minneapolis Center
07:50PM 46.3042 -89.4267 118° Southeast 252 290 10,900  Level Minneapolis Center
07:51PM 46.2675 -89.3272 120° Southeast 257 296 11,000  Climbing Minneapolis Center
07:52PM 46.2306 -89.2339 115° Southeast 257 296 11,000  Level Minneapolis Center
07:53PM 46.2000 -89.1403 120° Southeast 257 296 11,000  Level Minneapolis Center
07:54PM 46.1656 -89.0528 116° Southeast 257 296 11,000  Level Minneapolis Center
07:55PM 46.1325 -88.9567 118° Southeast 257 296 11,000  Level Minneapolis Center
07:56PM 46.0997 -88.8664 119° Southeast 257 296 11,000  Level Minneapolis Center
07:57PM 46.0647 -88.7764 116° Southeast 257 296 11,000  Level Minneapolis Center
07:58PM 46.0317 -88.6806 117° Southeast 257 296 11,000 -540 Level Minneapolis Center
07:59PM 45.9986 -88.5875 119° Southeast 257 296 10,000 -1,200 Descending Minneapolis Center
08:00PM 45.9611 -88.4922 118° Southeast 257 296 8,600 -1,320 Descending Minneapolis Center
08:01PM 45.9278 -88.4025 118° Southeast 257 296 7,500 -1,320 Descending Minneapolis Center
08:02PM 45.8947 -88.3131 115° Southeast 257 296 6,000 -1,500 Descending Minneapolis Center
08:03PM 45.8658 -88.2261 120° Southeast 257 296 4,500 -1,080 Descending Minneapolis Center
08:04PM 45.8350 -88.1486 53° Northeast 249 287 3,900 -720 Descending Minneapolis Center
08:06PM 45.8733 -88.0761 53° Northeast 260 299 2,500 -720 Descending Minneapolis Center